This is the latest recevied weather packets stored in our database for station/object SR6WXJG. If no packets are shown the sender has not sent any weather packets the latest 10 day(s).
| Time | Temp. | Humidity | Pressure | Rain* | Wind** | Luminosity | Snow |
|---|---|---|---|---|---|---|---|
| 1777501055 | 2.78° C | 48% | 1031 hPa | 0 mm | - | - | - |
| 1777500155 | 2.78° C | 53% | 1032 hPa | 0 mm | - | - | - |
| 1777499255 | 2.78° C | 52% | 1032 hPa | 0 mm | - | - | - |
| 1777498354 | 3.33° C | 52% | 1032 hPa | 0 mm | - | - | - |
| 1777497454 | 3.89° C | 44% | 1030 hPa | 0 mm | - | - | - |
| 1777496554 | 3.89° C | 49% | 1031 hPa | 0 mm | - | - | - |
| 1777495653 | 3.89° C | 49% | 1031 hPa | 0 mm | - | - | - |
| 1777494753 | 4.44° C | 48% | 1031 hPa | 0 mm | - | - | - |
| 1777493853 | 5° C | 39% | 1030 hPa | 0 mm | - | - | - |
| 1777492952 | 5° C | 46% | 1031 hPa | 0 mm | - | - | - |
| 1777492052 | 5.56° C | 46% | 1031 hPa | 0 mm | - | - | - |
| 1777491152 | 5.56° C | 45% | 1031 hPa | 0 mm | - | - | - |
| 1777490251 | 6.67° C | 35% | 1029 hPa | 0 mm | - | - | - |
| 1777489351 | 6.67° C | 42% | 1030 hPa | 0 mm | - | - | - |
| 1777488451 | 6.67° C | 42% | 1030 hPa | 0 mm | - | - | - |
| 1777487550 | 7.22° C | 42% | 1030 hPa | 0 mm | - | - | - |
| 1777486650 | 8.33° C | 32% | 1028 hPa | 0 mm | - | - | - |
| 1777485750 | 8.89° C | 39% | 1029 hPa | 0 mm | - | - | - |
| 1777484849 | 8.89° C | 38% | 1029 hPa | 0 mm | - | - | - |
| 1777483949 | 8.89° C | 38% | 1029 hPa | 0 mm | - | - | - |
| 1777483049 | 10.56° C | 30% | 1027 hPa | 0 mm | - | - | - |
| 1777482148 | 10.56° C | 36% | 1028 hPa | 0 mm | - | - | - |
| 1777481248 | 10.56° C | 36% | 1028 hPa | 0 mm | - | - | - |
| 1777480348 | 10.56° C | 36% | 1028 hPa | 0 mm | - | - | - |
| 1777479447 | 11.67° C | 29% | 1027 hPa | 0 mm | - | - | - |
* Rain latest hour (hover to see other rain measurements)
** Current wind speed in m/s (hover to see current wind gust speed)